Time;durP1;ratioP1;P1;durP2;ratioP2;P2;SDS_P1;SDS_P2;PMS_P1;PMS_P2;Temp;Humidity;BMP_temperature;BMP_pressure;BME280_temperature;BME280_humidity;BME280_pressure;Samples;Min_cycle;Max_cycle;Signal;HPM_P1;HPM_P2
2023/12/21 00:00:43;;;;;;;23.13;4.57;;;;;;;-144.74;100.00;63161.41;4987687;28;20067;-77
2023/12/21 00:03:09;;;;;;;30.70;4.63;;;;;;;-144.74;100.00;63161.41;4981444;28;20026;-78
2023/12/21 00:05:34;;;;;;;32.85;5.63;;;;;;;-144.74;100.00;63161.41;4985984;28;20075;-76
2023/12/21 00:08:00;;;;;;;33.17;5.75;;;;;;;-144.74;100.00;63161.41;4975842;28;20387;-76
2023/12/21 00:10:25;;;;;;;35.13;4.10;;;;;;;-144.74;100.00;63161.41;4978054;28;20031;-76
2023/12/21 00:12:50;;;;;;;41.80;5.10;;;;;;;-144.74;100.00;63161.41;4983904;28;20030;-77
2023/12/21 00:15:16;;;;;;;37.17;5.68;;;;;;;-144.74;100.00;63161.41;4982471;28;20390;-77
2023/12/21 00:17:41;;;;;;;28.90;4.03;;;;;;;-144.74;100.00;63161.41;4979242;28;20050;-77
2023/12/21 00:20:08;;;;;;;35.67;5.20;;;;;;;-144.74;100.00;63161.41;4978020;28;20058;-77
2023/12/21 00:22:33;;;;;;;39.03;5.72;;;;;;;-144.74;100.00;63161.41;4972173;28;20031;-75
2023/12/21 00:24:59;;;;;;;42.88;6.13;;;;;;;-144.74;100.00;63161.41;4978623;28;20080;-76
2023/12/21 00:27:27;;;;;;;33.15;4.88;;;;;;;-144.74;100.00;63161.41;4972123;28;20073;-77
2023/12/21 00:29:52;;;;;;;38.55;5.22;;;;;;;-144.74;100.00;63161.41;4980073;28;20041;-76
2023/12/21 00:32:18;;;;;;;44.45;5.32;;;;;;;-144.74;100.00;63161.41;4978384;28;20030;-77
2023/12/21 00:34:43;;;;;;;36.53;4.70;;;;;;;-144.74;100.00;63161.41;4980860;28;20043;-77
2023/12/21 00:37:09;;;;;;;35.90;5.95;;;;;;;-144.74;100.00;63161.41;4983948;28;20035;-77
2023/12/21 00:39:34;;;;;;;44.92;6.95;;;;;;;-144.74;100.00;63161.41;4986677;28;20034;-75
2023/12/21 00:41:59;;;;;;;34.63;5.55;;;;;;;-144.74;100.00;63161.41;4974073;28;20023;-76
2023/12/21 00:44:25;;;;;;;36.80;6.15;;;;;;;-144.74;100.00;63161.41;4975178;28;20109;-75
2023/12/21 00:46:50;;;;;;;48.15;6.45;;;;;;;-144.74;100.00;63161.41;4983857;28;20480;-75
2023/12/21 00:49:16;;;;;;;31.25;5.45;;;;;;;-144.74;100.00;63161.41;4974007;28;20069;-74
2023/12/21 00:51:41;;;;;;;50.78;5.30;;;;;;;-144.74;100.00;63161.41;4974403;28;20027;-74
2023/12/21 00:54:06;;;;;;;36.42;4.72;;;;;;;-144.74;100.00;63161.41;4979482;28;20034;-73
2023/12/21 00:56:32;;;;;;;46.63;7.15;;;;;;;-144.74;100.00;63161.41;4975789;28;20031;-73
2023/12/21 00:58:59;;;;;;;53.65;7.38;;;;;;;-144.74;100.00;63161.41;4975677;28;20058;-73
2023/12/21 01:01:26;;;;;;;41.50;5.63;;;;;;;-144.74;100.00;63161.41;4983405;28;20031;-72
2023/12/21 01:03:51;;;;;;;43.80;5.72;;;;;;;-144.74;100.00;63161.41;4987643;28;20043;-72
2023/12/21 01:06:17;;;;;;;43.40;6.65;;;;;;;-144.74;100.00;63161.41;4980581;28;20026;-72
2023/12/21 01:08:42;;;;;;;52.15;7.32;;;;;;;-144.74;100.00;63161.41;4979453;28;20038;-71
2023/12/21 01:11:07;;;;;;;61.50;7.00;;;;;;;-144.74;100.00;63161.41;4978837;28;20038;-71
2023/12/21 01:13:33;;;;;;;44.28;5.35;;;;;;;-144.74;100.00;63161.41;4985039;28;20030;-71
2023/12/21 01:15:59;;;;;;;37.60;5.53;;;;;;;-144.74;100.00;63161.41;4979691;28;20056;-72
2023/12/21 01:18:24;;;;;;;37.33;5.70;;;;;;;-144.74;100.00;63161.41;4985396;28;20153;-72
2023/12/21 01:20:49;;;;;;;55.13;7.50;;;;;;;-144.74;100.00;63161.41;4989273;28;20099;-72
2023/12/21 01:23:16;;;;;;;53.80;6.30;;;;;;;-144.74;100.00;63161.41;4982312;28;20027;-71
2023/12/21 01:25:42;;;;;;;43.67;5.45;;;;;;;-144.74;100.00;63161.41;4974018;28;20027;-71
2023/12/21 01:28:07;;;;;;;45.03;6.07;;;;;;;-144.74;100.00;63161.41;4976751;28;20098;-73
2023/12/21 01:30:40;;;;;;;29.88;4.10;;;;;;;-144.74;100.00;63161.41;4983367;28;20037;-73
2023/12/21 01:33:08;;;;;;;30.98;4.43;;;;;;;-144.74;100.00;63161.41;4985667;28;20057;-72
2023/12/21 01:35:38;;;;;;;35.47;4.93;;;;;;;-144.74;100.00;63161.41;4984573;28;20034;-72
2023/12/21 01:38:04;;;;;;;32.08;4.70;;;;;;;-144.74;100.00;63161.41;4969749;28;20057;-71
2023/12/21 01:40:29;;;;;;;22.45;3.58;;;;;;;-144.74;100.00;63161.41;4979529;28;20022;-71
2023/12/21 01:42:54;;;;;;;37.00;4.82;;;;;;;-144.74;100.00;63161.41;4979040;28;20046;-71
2023/12/21 01:45:20;;;;;;;26.55;3.90;;;;;;;-144.74;100.00;63161.41;4981060;28;20125;-72
2023/12/21 01:47:46;;;;;;;30.27;3.45;;;;;;;-144.74;100.00;63161.41;4974064;28;20065;-72
2023/12/21 01:50:12;;;;;;;33.05;4.03;;;;;;;-144.74;100.00;63161.41;4972996;28;20065;-72
2023/12/21 01:52:41;;;;;;;22.77;3.67;;;;;;;-144.74;100.00;63161.41;4979468;28;20034;-72
2023/12/21 01:55:08;;;;;;;21.88;3.22;;;;;;;-144.74;100.00;63161.41;4979707;28;20037;-72
2023/12/21 01:57:34;;;;;;;25.63;4.05;;;;;;;-144.74;100.00;63161.41;4996564;28;20031;-72
2023/12/21 02:00:00;;;;;;;27.88;4.63;;;;;;;-144.74;100.00;63161.41;4978914;28;20026;-72
2023/12/21 02:02:25;;;;;;;21.85;4.47;;;;;;;-144.74;100.00;63161.41;4978391;28;20026;-72
2023/12/21 02:04:54;;;;;;;39.75;5.07;;;;;;;-144.74;100.00;63161.41;4982757;28;20038;-71
2023/12/21 02:07:19;;;;;;;36.30;5.68;;;;;;;-144.74;100.00;63161.41;4977582;28;20089;-72
2023/12/21 02:09:44;;;;;;;29.25;4.03;;;;;;;-144.74;100.00;63161.41;4973898;28;20043;-72
2023/12/21 02:12:10;;;;;;;23.40;4.50;;;;;;;-144.74;100.00;63161.41;4980360;28;20053;-71
2023/12/21 02:14:36;;;;;;;29.27;5.57;;;;;;;-144.74;100.00;63161.41;4980650;28;20039;-71
2023/12/21 02:17:05;;;;;;;35.13;5.70;;;;;;;-144.74;100.00;63161.41;4978650;28;20058;-72
2023/12/21 02:19:31;;;;;;;29.65;4.00;;;;;;;-144.74;100.00;63161.41;4975159;28;20041;-72
2023/12/21 02:21:59;;;;;;;28.65;4.07;;;;;;;-144.74;100.00;63161.41;4973843;28;20030;-72
2023/12/21 02:24:25;;;;;;;39.80;4.85;;;;;;;-144.74;100.00;63161.41;4981287;28;20042;-73
2023/12/21 02:26:51;;;;;;;30.00;4.57;;;;;;;-144.74;100.00;63161.41;4978019;28;20027;-72
2023/12/21 02:29:16;;;;;;;34.70;4.25;;;;;;;-144.74;100.00;63161.41;4974573;28;20039;-73
2023/12/21 02:31:42;;;;;;;31.88;4.70;;;;;;;-144.74;100.00;63161.41;4985353;28;20041;-71
2023/12/21 02:34:07;;;;;;;31.08;4.40;;;;;;;-144.74;100.00;63161.41;4981572;28;20117;-71
2023/12/21 02:36:33;;;;;;;33.83;4.70;;;;;;;-144.74;100.00;63161.41;4994670;28;20030;-72
2023/12/21 02:38:58;;;;;;;24.30;3.47;;;;;;;-144.74;100.00;63161.41;4975362;28;20046;-71
2023/12/21 02:41:24;;;;;;;28.95;3.47;;;;;;;-144.74;100.00;63161.41;4973466;28;20030;-71
2023/12/21 02:43:49;;;;;;;21.83;3.65;;;;;;;-144.74;100.00;63161.41;4980684;28;20030;-71
2023/12/21 02:46:14;;;;;;;28.55;4.18;;;;;;;-144.74;100.00;63161.41;4980580;28;20030;-71
2023/12/21 02:48:40;;;;;;;19.85;4.25;;;;;;;-144.74;100.00;63161.41;4972377;28;20046;-71
2023/12/21 02:51:05;;;;;;;30.17;3.92;;;;;;;-144.74;100.00;63161.41;4975148;28;20030;-71
2023/12/21 02:53:31;;;;;;;23.35;3.40;;;;;;;-144.74;100.00;63161.41;4978193;28;20107;-71
2023/12/21 02:55:57;;;;;;;33.08;4.63;;;;;;;-144.74;100.00;63161.41;4975872;28;20031;-73
2023/12/21 02:58:23;;;;;;;34.42;4.80;;;;;;;-144.74;100.00;63161.41;4985120;28;20038;-71
2023/12/21 03:00:49;;;;;;;30.95;4.45;;;;;;;-144.74;100.00;63161.41;4979427;28;20019;-71
2023/12/21 03:03:15;;;;;;;44.22;5.00;;;;;;;-144.74;100.00;63161.41;4977294;28;20113;-71
2023/12/21 03:05:40;;;;;;;39.90;4.82;;;;;;;-144.74;100.00;63161.41;4974634;28;20113;-71
2023/12/21 03:08:06;;;;;;;40.15;5.63;;;;;;;-144.74;100.00;63161.41;4974629;28;20110;-71
2023/12/21 03:10:31;;;;;;;52.83;6.10;;;;;;;-144.74;100.00;63161.41;4974368;28;20062;-71
2023/12/21 03:12:56;;;;;;;38.60;6.28;;;;;;;-144.74;100.00;63161.41;4974214;28;20126;-72
2023/12/21 03:15:22;;;;;;;44.38;6.50;;;;;;;-144.74;100.00;63161.41;4981110;28;20088;-71
2023/12/21 03:17:47;;;;;;;54.80;6.13;;;;;;;-144.74;100.00;63161.41;4971921;28;20118;-71
2023/12/21 03:20:12;;;;;;;38.90;6.22;;;;;;;-144.74;100.00;63161.41;4972548;28;20379;-71
2023/12/21 03:22:38;;;;;;;33.60;5.07;;;;;;;-144.74;100.00;63161.41;4975900;28;20058;-71
2023/12/21 03:25:04;;;;;;;46.78;6.35;;;;;;;-144.74;100.00;63161.41;4975764;28;20034;-71
2023/12/21 03:27:29;;;;;;;41.55;6.97;;;;;;;-144.74;100.00;63161.41;4973110;28;20113;-71
2023/12/21 03:29:54;;;;;;;41.03;6.43;;;;;;;-144.74;100.00;63161.41;4972481;28;20038;-71
2023/12/21 03:32:20;;;;;;;42.40;6.80;;;;;;;-144.74;100.00;63161.41;4981397;28;20027;-74
2023/12/21 03:34:45;;;;;;;46.17;7.00;;;;;;;-144.74;100.00;63161.41;4984984;28;20035;-71
2023/12/21 03:37:10;;;;;;;49.47;7.40;;;;;;;-144.74;100.00;63161.41;4979212;28;20821;-71
2023/12/21 03:39:36;;;;;;;49.65;7.30;;;;;;;-144.74;100.00;63161.41;4974820;28;20069;-72
2023/12/21 03:42:02;;;;;;;45.88;7.82;;;;;;;-144.74;100.00;63161.41;4990500;28;20409;-71
2023/12/21 03:44:28;;;;;;;47.83;6.32;;;;;;;-144.74;100.00;63161.41;4971593;28;20093;-71
2023/12/21 03:46:53;;;;;;;38.25;6.90;;;;;;;-144.74;100.00;63161.41;4985223;28;20030;-71
2023/12/21 03:49:19;;;;;;;47.15;6.88;;;;;;;-144.74;100.00;63161.41;4981874;28;20513;-71
2023/12/21 03:51:44;;;;;;;35.40;6.82;;;;;;;-144.74;100.00;63161.41;4973228;28;20030;-71
2023/12/21 03:54:09;;;;;;;33.17;5.40;;;;;;;-144.74;100.00;63161.41;4978604;28;20125;-71
2023/12/21 03:56:38;;;;;;;42.00;6.65;;;;;;;-144.74;100.00;63161.41;4983853;28;20033;-71
2023/12/21 03:59:04;;;;;;;48.85;6.65;;;;;;;-144.74;100.00;63161.41;4975945;28;20035;-71
2023/12/21 04:01:29;;;;;;;35.67;5.78;;;;;;;-144.74;100.00;63161.41;4973461;28;20027;-72
2023/12/21 04:03:55;;;;;;;40.75;5.65;;;;;;;-144.74;100.00;63161.41;4983034;28;20030;-72
2023/12/21 04:06:21;;;;;;;38.17;6.38;;;;;;;-144.74;100.00;63161.41;4982251;28;20030;-76
2023/12/21 04:08:46;;;;;;;37.65;5.88;;;;;;;-144.74;100.00;63161.41;4988540;28;20030;-79
2023/12/21 04:11:12;;;;;;;40.50;6.72;;;;;;;-144.74;100.00;63161.41;4988045;28;20034;-79
2023/12/21 04:13:37;;;;;;;41.67;5.63;;;;;;;-144.74;100.00;63161.41;4977506;28;20039;-79
2023/12/21 04:16:05;;;;;;;44.58;6.35;;;;;;;-144.74;100.00;63161.41;4983614;28;20129;-79
2023/12/21 04:18:32;;;;;;;57.88;6.97;;;;;;;-144.74;100.00;63161.41;4984116;28;20034;-80
2023/12/21 04:20:57;;;;;;;25.83;4.80;;;;;;;-144.74;100.00;63161.41;4988660;28;20046;-79
2023/12/21 04:23:24;;;;;;;35.28;6.20;;;;;;;-144.74;100.00;63161.41;4989230;28;20035;-79
2023/12/21 04:25:50;;;;;;;27.50;4.88;;;;;;;-144.74;100.00;63161.41;4989270;28;20019;-79
2023/12/21 04:28:15;;;;;;;24.85;4.93;;;;;;;-144.74;100.00;63161.41;4995577;28;20049;-78
2023/12/21 04:30:40;;;;;;;31.10;7.07;;;;;;;-144.74;100.00;63161.41;4990364;28;20023;-79
2023/12/21 04:33:07;;;;;;;23.48;5.00;;;;;;;-144.74;100.00;63161.41;4991371;28;20040;-79
2023/12/21 04:35:32;;;;;;;23.80;6.45;;;;;;;-144.74;100.00;63161.41;4993066;28;20034;-79
2023/12/21 04:37:57;;;;;;;23.52;5.35;;;;;;;-144.74;100.00;63161.41;4986333;28;20042;-79
2023/12/21 04:40:23;;;;;;;27.35;5.78;;;;;;;-144.74;100.00;63161.41;4988566;28;20118;-79
2023/12/21 04:42:54;;;;;;;26.08;5.88;;;;;;;-144.74;100.00;63161.41;4985801;28;20041;-78
2023/12/21 04:45:20;;;;;;;;;;;;;;;-144.74;100.00;63161.41;4983319;28;20026;-78
2023/12/21 04:47:45;;;;;;;18.70;5.32;;;;;;;-144.74;100.00;63161.41;4986823;28;19913;-78
2023/12/21 04:50:11;;;;;;;19.15;6.05;;;;;;;-144.74;100.00;63161.41;4983574;28;20023;-78
2023/12/21 04:52:39;;;;;;;22.23;7.05;;;;;;;-144.74;100.00;63161.41;4981069;28;20079;-78
2023/12/21 04:55:05;;;;;;;18.90;5.70;;;;;;;-144.74;100.00;63161.41;4981867;28;20538;-78
2023/12/21 04:57:30;;;;;;;16.23;5.72;;;;;;;-144.74;100.00;63161.41;4981494;28;20015;-78
2023/12/21 04:59:56;;;;;;;12.60;5.18;;;;;;;-144.74;100.00;63161.41;4981215;28;20046;-78
2023/12/21 05:02:21;;;;;;;13.05;5.68;;;;;;;-144.74;100.00;63161.41;4993119;28;20026;-77
2023/12/21 05:04:47;;;;;;;12.88;4.28;;;;;;;-144.74;100.00;63161.41;4984282;28;20057;-78
2023/12/21 05:07:12;;;;;;;13.02;4.45;;;;;;;-144.74;100.00;63161.41;4985838;28;20022;-77
2023/12/21 05:09:40;;;;;;;11.25;3.83;;;;;;;-144.74;100.00;63161.41;4981792;28;20504;-78
2023/12/21 05:12:06;;;;;;;13.15;3.60;;;;;;;-144.74;100.00;63161.41;4982492;28;20106;-77
2023/12/21 05:14:32;;;;;;;8.13;3.05;;;;;;;-144.74;100.00;63161.41;4989377;28;20035;-77
2023/12/21 05:16:57;;;;;;;9.63;3.42;;;;;;;-144.74;100.00;63161.41;4982592;28;20421;-77
2023/12/21 05:19:23;;;;;;;13.93;3.00;;;;;;;-144.74;100.00;63161.41;4982513;28;20031;-78
2023/12/21 05:21:48;;;;;;;10.20;3.20;;;;;;;-144.74;100.00;63161.41;4989255;28;20006;-77
2023/12/21 05:24:13;;;;;;;7.95;2.80;;;;;;;-144.74;100.00;63161.41;4986465;28;20437;-77
2023/12/21 05:26:39;;;;;;;8.70;3.20;;;;;;;-144.74;100.00;63161.41;4982028;28;20023;-77
2023/12/21 05:29:04;;;;;;;9.25;3.17;;;;;;;-144.74;100.00;63161.41;4981504;28;20038;-76
2023/12/21 05:31:30;;;;;;;9.20;2.72;;;;;;;-144.74;100.00;63161.41;4975037;28;20023;-76
2023/12/21 05:33:56;;;;;;;6.05;2.55;;;;;;;-144.74;100.00;63161.41;4988503;28;20054;-75
2023/12/21 05:36:22;;;;;;;8.52;3.38;;;;;;;-144.74;100.00;63161.41;4983251;28;20082;-76
2023/12/21 05:38:49;;;;;;;6.15;2.25;;;;;;;-144.74;100.00;63161.41;4984773;28;20035;-76
2023/12/21 05:41:14;;;;;;;3.08;2.00;;;;;;;-144.74;100.00;63161.41;4976224;28;20140;-76
2023/12/21 05:43:41;;;;;;;5.35;2.30;;;;;;;-144.74;100.00;63161.41;4977660;28;20046;-74
2023/12/21 05:46:09;;;;;;;7.32;2.40;;;;;;;-144.74;100.00;63161.41;4975509;28;20023;-76
2023/12/21 05:48:36;;;;;;;5.15;2.33;;;;;;;-144.74;100.00;63161.41;4983258;28;20102;-76
2023/12/21 05:51:01;;;;;;;6.07;2.47;;;;;;;-144.74;100.00;63161.41;4983002;28;20038;-76
2023/12/21 05:53:30;;;;;;;7.38;2.60;;;;;;;-144.74;100.00;63161.41;4983120;28;20192;-76
2023/12/21 05:55:56;;;;;;;6.90;2.30;;;;;;;-144.74;100.00;63161.41;4977290;28;20027;-75
2023/12/21 05:58:21;;;;;;;4.70;2.00;;;;;;;-144.74;100.00;63161.41;4975114;28;20113;-76
2023/12/21 06:00:47;;;;;;;6.93;2.17;;;;;;;-144.74;100.00;63161.41;4981476;28;20093;-76
2023/12/21 06:03:12;;;;;;;2.33;1.50;;;;;;;-144.74;100.00;63161.41;4989708;28;20109;-76
2023/12/21 06:05:37;;;;;;;5.18;2.30;;;;;;;-144.74;100.00;63161.41;4986280;28;20022;-76
2023/12/21 06:08:03;;;;;;;4.80;2.22;;;;;;;-144.74;100.00;63161.41;4979830;28;20098;-77
2023/12/21 06:10:29;;;;;;;8.10;1.95;;;;;;;-144.74;100.00;63161.41;4987456;28;20030;-78
2023/12/21 06:12:54;;;;;;;3.72;2.38;;;;;;;-144.74;100.00;63161.41;4992625;28;20053;-78
2023/12/21 06:15:19;;;;;;;7.82;2.70;;;;;;;-144.74;100.00;63161.41;4981921;28;20038;-78
2023/12/21 06:17:45;;;;;;;4.93;2.53;;;;;;;-144.74;100.00;63161.41;4989739;28;20053;-78
2023/12/21 06:20:10;;;;;;;5.70;3.03;;;;;;;-144.74;100.00;63161.41;4984127;28;20011;-78
2023/12/21 06:22:36;;;;;;;7.78;3.72;;;;;;;-144.74;100.00;63161.41;4981887;28;20025;-78
2023/12/21 06:25:01;;;;;;;8.27;3.42;;;;;;;-144.74;100.00;63161.41;4981293;28;20019;-78
2023/12/21 06:27:26;;;;;;;5.53;3.85;;;;;;;-144.74;100.00;63161.41;4982330;28;20587;-78
2023/12/21 06:29:52;;;;;;;9.57;4.18;;;;;;;-144.74;100.00;63161.41;4982956;28;20043;-78
2023/12/21 06:32:17;;;;;;;6.22;4.07;;;;;;;-144.74;100.00;63161.41;4996943;28;20037;-79
2023/12/21 06:34:43;;;;;;;5.90;4.20;;;;;;;-144.74;100.00;63161.41;4991810;28;20022;-78
2023/12/21 06:37:08;;;;;;;7.85;4.05;;;;;;;-144.74;100.00;63161.41;4995269;28;20026;-78
2023/12/21 06:39:34;;;;;;;7.47;4.72;;;;;;;-144.74;100.00;63161.41;4981484;28;20031;-78
2023/12/21 06:42:00;;;;;;;10.35;4.00;;;;;;;-144.74;100.00;63161.41;4987039;28;20047;-77
2023/12/21 06:44:26;;;;;;;11.52;4.90;;;;;;;-144.74;100.00;63161.41;4993253;28;20038;-78
2023/12/21 06:46:52;;;;;;;6.22;3.67;;;;;;;-144.74;100.00;63161.41;4984431;28;20113;-78
2023/12/21 06:49:17;;;;;;;5.13;3.85;;;;;;;-144.74;100.00;63161.41;4988781;28;20065;-77
2023/12/21 06:51:44;;;;;;;4.57;3.33;;;;;;;-144.74;100.00;63161.41;4996331;28;20014;-78
2023/12/21 06:54:14;;;;;;;18.60;3.75;;;;;;;-144.74;100.00;63161.41;4987303;28;20362;-78
2023/12/21 06:56:39;;;;;;;8.93;2.90;;;;;;;-144.74;100.00;63161.41;4985404;28;20053;-78
2023/12/21 06:59:05;;;;;;;7.25;3.05;;;;;;;-144.74;100.00;63161.41;4990260;28;20061;-81
2023/12/21 07:01:30;;;;;;;4.00;2.65;;;;;;;-144.74;100.00;63161.41;4989070;28;20014;-79
2023/12/21 07:03:57;;;;;;;2.92;2.28;;;;;;;-144.74;100.00;63161.41;4998417;28;20031;-80
2023/12/21 07:06:23;;;;;;;3.38;2.15;;;;;;;-144.74;100.00;63161.41;4990251;28;20046;-80
2023/12/21 07:08:49;;;;;;;3.60;2.25;;;;;;;-144.74;100.00;63161.41;4994162;28;20036;-81
2023/12/21 07:11:18;;;;;;;4.00;2.63;;;;;;;-144.74;100.00;63161.41;4987752;28;20114;-81
2023/12/21 07:13:44;;;;;;;3.65;2.50;;;;;;;-144.74;100.00;63161.41;4986566;28;20062;-81
2023/12/21 07:16:10;;;;;;;6.57;2.30;;;;;;;-144.74;100.00;63161.41;4993493;28;20030;-82
2023/12/21 07:18:36;;;;;;;2.58;2.25;;;;;;;-144.74;100.00;63161.41;4993841;28;20102;-82
2023/12/21 07:21:05;;;;;;;3.58;2.42;;;;;;;-144.74;100.00;63161.41;4992190;28;20042;-82
2023/12/21 07:23:31;;;;;;;4.07;2.50;;;;;;;-144.74;100.00;63161.41;4989550;28;20098;-82
2023/12/21 07:25:57;;;;;;;4.63;2.63;;;;;;;-144.74;100.00;63161.41;4987184;28;20053;-82
2023/12/21 07:28:28;;;;;;;4.45;2.50;;;;;;;-144.74;100.00;63161.41;4991136;28;20027;-82
2023/12/21 07:30:53;;;;;;;2.80;2.47;;;;;;;-144.74;100.00;63161.41;4989627;28;20019;-82
2023/12/21 07:33:21;;;;;;;3.13;2.50;;;;;;;-144.74;100.00;63161.41;4987145;28;20086;-81
2023/12/21 07:35:50;;;;;;;7.45;3.00;;;;;;;-144.74;100.00;63161.41;4989052;28;20057;-81
2023/12/21 07:38:15;;;;;;;2.03;1.83;;;;;;;-144.74;100.00;63161.41;4994448;28;20039;-81
2023/12/21 07:40:44;;;;;;;5.28;2.00;;;;;;;-144.74;100.00;63161.41;4995247;28;20023;-81
2023/12/21 07:43:09;;;;;;;8.35;2.40;;;;;;;-144.74;100.00;63161.41;4991697;28;20031;-82
2023/12/21 07:45:35;;;;;;;6.60;2.45;;;;;;;-144.74;100.00;63161.41;4987277;28;20023;-80
2023/12/21 07:48:01;;;;;;;3.45;2.05;;;;;;;-144.74;100.00;63161.41;4989497;28;20046;-81
2023/12/21 07:50:27;;;;;;;2.75;1.98;;;;;;;-144.74;100.00;63161.41;4982488;28;20077;-81
2023/12/21 07:52:56;;;;;;;3.40;2.38;;;;;;;-144.74;100.00;63161.41;4992570;28;20046;-82
2023/12/21 07:55:22;;;;;;;4.82;1.85;;;;;;;-144.74;100.00;63161.41;4992715;28;20058;-82
2023/12/21 07:57:48;;;;;;;4.82;2.17;;;;;;;-144.74;100.00;63161.41;4995025;28;20088;-81
2023/12/21 08:00:14;;;;;;;4.72;1.70;;;;;;;-144.74;100.00;63161.41;4987838;28;20035;-81
2023/12/21 08:02:44;;;;;;;9.95;2.17;;;;;;;-144.74;100.00;63161.41;4984097;28;20022;-74
2023/12/21 08:05:11;;;;;;;2.40;1.80;;;;;;;-144.74;100.00;63161.41;4981908;28;20038;-73
2023/12/21 08:07:36;;;;;;;2.97;1.90;;;;;;;-144.74;100.00;63161.41;4985143;28;20122;-74
2023/12/21 08:10:01;;;;;;;6.53;2.00;;;;;;;-144.74;100.00;63161.41;4986831;28;20113;-74
2023/12/21 08:12:27;;;;;;;5.10;2.30;;;;;;;-144.74;100.00;63161.41;4980394;28;20027;-74
2023/12/21 08:14:52;;;;;;;6.38;2.25;;;;;;;-144.74;100.00;63161.41;4981466;28;20543;-74
2023/12/21 08:17:20;;;;;;;3.75;2.00;;;;;;;-144.74;100.00;63161.41;4983869;28;20037;-73
2023/12/21 08:19:46;;;;;;;2.75;2.00;;;;;;;-144.74;100.00;63161.41;4984979;28;20070;-74
2023/12/21 08:22:11;;;;;;;2.50;2.00;;;;;;;-144.74;100.00;63161.41;4986081;28;20057;-73
2023/12/21 08:24:36;;;;;;;3.22;2.33;;;;;;;-144.74;100.00;63161.41;4979762;28;20046;-74
2023/12/21 08:27:02;;;;;;;3.33;1.58;;;;;;;-144.74;100.00;63161.41;4986641;28;20019;-73
2023/12/21 08:29:27;;;;;;;7.55;1.80;;;;;;;-144.74;100.00;63161.41;4985279;28;20375;-74
2023/12/21 08:31:53;;;;;;;3.50;2.25;;;;;;;-144.74;100.00;63161.41;4984772;28;20065;-74
2023/12/21 08:34:18;;;;;;;2.58;1.70;;;;;;;-144.74;100.00;63161.41;4979873;28;20053;-74
2023/12/21 08:36:43;;;;;;;2.35;1.70;;;;;;;-144.74;100.00;63161.41;4982810;28;20030;-74
2023/12/21 08:39:09;;;;;;;2.47;1.38;;;;;;;-144.74;100.00;63161.41;4988819;28;20047;-74
2023/12/21 08:41:34;;;;;;;7.60;1.00;;;;;;;-144.74;100.00;63161.41;4983233;28;20041;-73
2023/12/21 08:44:00;;;;;;;1.98;0.82;;;;;;;-144.74;100.00;63161.41;4984633;28;20502;-73
2023/12/21 08:46:25;;;;;;;2.70;1.00;;;;;;;-144.74;100.00;63161.41;4983556;28;20068;-73
2023/12/21 08:48:50;;;;;;;0.90;0.70;;;;;;;-144.74;100.00;63161.41;4987134;28;20037;-72
2023/12/21 08:51:16;;;;;;;1.85;0.90;;;;;;;-144.74;100.00;63161.41;4971330;28;20183;-72
2023/12/21 08:53:44;;;;;;;0.88;0.50;;;;;;;-144.74;100.00;63161.41;4982223;28;20050;-72
2023/12/21 08:56:10;;;;;;;0.82;0.47;;;;;;;-144.74;100.00;63161.41;4974750;28;20381;-73
2023/12/21 08:58:36;;;;;;;0.57;0.47;;;;;;;-144.74;100.00;63161.41;4981028;28;20043;-74
2023/12/21 09:01:01;;;;;;;1.67;0.47;;;;;;;-144.74;100.00;63161.41;4983662;28;20026;-73
2023/12/21 09:03:27;;;;;;;1.20;0.40;;;;;;;-144.74;100.00;63161.41;4979236;28;20054;-73
2023/12/21 09:05:52;;;;;;;1.67;0.60;;;;;;;-144.74;100.00;63161.41;4979839;28;20030;-73
2023/12/21 09:08:18;;;;;;;2.30;1.00;;;;;;;-144.74;100.00;63161.41;4985375;28;20047;-73
2023/12/21 09:10:43;;;;;;;0.95;0.68;;;;;;;-144.74;100.00;63161.41;4979019;28;20022;-73
2023/12/21 09:13:09;;;;;;;0.52;0.47;;;;;;;-144.74;100.00;63161.41;4978663;28;20101;-72
2023/12/21 09:15:36;;;;;;;2.25;0.77;;;;;;;-144.74;100.00;63161.41;4983733;28;20086;-74
2023/12/21 09:18:05;;;;;;;3.38;0.82;;;;;;;-144.74;100.00;63161.41;4979845;28;20430;-73
2023/12/21 09:20:37;;;;;;;1.23;0.90;;;;;;;-144.74;100.00;63161.41;4980243;28;20173;-74
2023/12/21 09:23:02;;;;;;;;;;;;;;;-144.74;100.00;63161.41;4980819;28;20085;-71
2023/12/21 09:25:28;;;;;;;1.10;0.77;;;;;;;-144.74;100.00;63161.41;4979274;28;20008;-73
2023/12/21 09:27:54;;;;;;;1.10;0.75;;;;;;;-144.74;100.00;63161.41;4976930;28;20522;-74
2023/12/21 09:30:20;;;;;;;3.63;0.90;;;;;;;-144.74;100.00;63161.41;4981129;28;20037;-73
2023/12/21 09:32:46;;;;;;;1.17;0.65;;;;;;;-144.74;100.00;63161.41;4977334;28;20046;-72
2023/12/21 09:35:11;;;;;;;2.15;1.10;;;;;;;-144.74;100.00;63161.41;4977144;28;20026;-72
2023/12/21 09:37:37;;;;;;;4.07;1.20;;;;;;;-144.74;100.00;63161.41;4975708;28;20026;-73
2023/12/21 09:40:03;;;;;;;1.67;0.95;;;;;;;-144.74;100.00;63161.41;4974391;28;20089;-73
2023/12/21 09:42:29;;;;;;;2.30;1.05;;;;;;;-144.74;100.00;63161.41;4978803;28;20026;-72
2023/12/21 09:44:55;;;;;;;6.47;1.13;;;;;;;-144.74;100.00;63161.41;4982303;28;20038;-74
2023/12/21 09:47:23;;;;;;;3.40;1.63;;;;;;;-144.74;100.00;63161.41;4971685;28;20059;-73
2023/12/21 09:49:50;;;;;;;3.20;0.80;;;;;;;-144.74;100.00;63161.41;4979603;28;20038;-73
2023/12/21 09:52:17;;;;;;;2.10;1.20;;;;;;;-144.74;100.00;63161.41;4983436;28;20054;-73
2023/12/21 09:54:45;;;;;;;3.33;1.25;;;;;;;-144.74;100.00;63161.41;4982453;28;20121;-71
2023/12/21 09:57:12;;;;;;;15.95;1.48;;;;;;;-144.74;100.00;63161.41;4974192;28;20023;-72
2023/12/21 09:59:38;;;;;;;7.95;1.42;;;;;;;-144.74;100.00;63161.41;4977088;28;20109;-73
2023/12/21 10:02:11;;;;;;;3.08;1.02;;;;;;;-144.74;100.00;63161.41;4978410;28;20049;-74
2023/12/21 10:04:40;;;;;;;2.75;1.30;;;;;;;-144.74;100.00;63161.41;4975942;28;20051;-73
2023/12/21 10:07:05;;;;;;;2.08;1.00;;;;;;;-144.74;100.00;63161.41;4977513;28;20026;-74
2023/12/21 10:09:31;;;;;;;2.70;1.00;;;;;;;-144.74;100.00;63161.41;4981321;28;20035;-73
2023/12/21 10:11:57;;;;;;;2.95;1.10;;;;;;;-144.74;100.00;63161.41;4976647;28;20081;-74
2023/12/21 10:14:24;;;;;;;3.40;0.82;;;;;;;-144.74;100.00;63161.41;4973698;28;20041;-73
2023/12/21 10:16:49;;;;;;;2.30;1.00;;;;;;;-144.74;100.00;63161.41;4976842;28;20026;-72
2023/12/21 10:19:16;;;;;;;1.52;0.95;;;;;;;-144.74;100.00;63161.41;4977550;28;20070;-69
2023/12/21 10:21:42;;;;;;;3.17;0.98;;;;;;;-144.74;100.00;63161.41;4975874;28;20032;-72
2023/12/21 10:24:08;;;;;;;0.73;0.65;;;;;;;-144.74;100.00;63161.41;4978394;28;20033;-73
2023/12/21 10:26:47;;;;;;;1.20;0.82;;;;;;;-144.74;100.00;63161.41;4978963;28;20433;-71
2023/12/21 10:29:16;;;;;;;5.63;0.98;;;;;;;-144.74;100.00;63161.41;4978156;28;20030;-72
2023/12/21 10:31:46;;;;;;;1.25;0.73;;;;;;;-144.74;100.00;63161.41;4979659;28;20050;-74
2023/12/21 10:34:13;;;;;;;2.03;0.55;;;;;;;-144.74;100.00;63161.41;4979710;28;20026;-72
2023/12/21 10:36:39;;;;;;;1.67;0.85;;;;;;;-144.74;100.00;63161.41;4981355;28;20117;-72
2023/12/21 10:39:04;;;;;;;4.03;1.02;;;;;;;-144.74;100.00;63161.41;4954052;28;20038;-71
2023/12/21 10:41:30;;;;;;;5.82;1.00;;;;;;;-144.74;100.00;63161.41;4979207;28;20014;-72
2023/12/21 10:43:56;;;;;;;2.67;0.88;;;;;;;-144.74;100.00;63161.41;4980629;28;20049;-71
2023/12/21 10:46:22;;;;;;;3.40;1.20;;;;;;;-144.74;100.00;63161.41;4977897;28;20097;-72
2023/12/21 10:48:48;;;;;;;5.15;1.08;;;;;;;-144.74;100.00;63161.41;4985399;28;20026;-71
2023/12/21 10:51:15;;;;;;;7.70;1.50;;;;;;;-144.74;100.00;63161.41;4977653;28;20130;-72
2023/12/21 10:53:42;;;;;;;1.92;0.98;;;;;;;-144.74;100.00;63161.41;4986335;28;20034;-71
2023/12/21 10:56:09;;;;;;;3.13;1.15;;;;;;;-144.74;100.00;63161.41;4978871;28;20093;-70
2023/12/21 10:58:35;;;;;;;2.95;1.10;;;;;;;-144.74;100.00;63161.41;4982211;28;20023;-71
2023/12/21 11:01:02;;;;;;;3.75;1.20;;;;;;;-144.74;100.00;63161.41;4969297;28;20073;-71